Time;durP1;ratioP1;P1;durP2;ratioP2;P2;SDS_P1;SDS_P2;PMS_P1;PMS_P2;Temp;Humidity;BMP_temperature;BMP_pressure;BME280_temperature;BME280_humidity;BME280_pressure;Samples;Min_cycle;Max_cycle;Signal;HPM_P1;HPM_P2
2024/03/15 00:00:03;;;;;;;6.40;2.88;;;;;;;;;;691016;28;878;-64
2024/03/15 00:00:25;;;;;;;4.15;2.78;;;;;;;;;;692749;28;1520;-64
2024/03/15 00:00:51;;;;;;;5.05;2.72;;;;;;;;;;696230;28;889;-64
2024/03/15 00:01:11;;;;;;;4.80;2.85;;;;;;;;;;693711;28;4373;-64
2024/03/15 00:01:32;;;;;;;5.43;3.13;;;;;;;;;;694488;28;1039;-64
2024/03/15 00:01:53;;;;;;;5.68;3.08;;;;;;;;;;690226;28;1583;-64
2024/03/15 00:02:15;;;;;;;6.63;3.30;;;;;;;;;;692770;28;1379;-64
2024/03/15 00:02:35;;;;;;;5.28;3.10;;;;;;;;;;694198;28;1091;-64
2024/03/15 00:02:55;;;;;;;4.57;3.00;;;;;;;;;;691054;28;1454;-64
2024/03/15 00:03:15;;;;;;;4.82;3.03;;;;;;;;;;693619;28;845;-64
2024/03/15 00:03:36;;;;;;;5.80;3.20;;;;;;;;;;691551;28;1085;-64
2024/03/15 00:03:56;;;;;;;5.00;3.13;;;;;;;;;;691865;28;1696;-64
2024/03/15 00:04:16;;;;;;;5.40;3.08;;;;;;;;;;692435;28;4517;-64
2024/03/15 00:04:37;;;;;;;5.03;3.10;;;;;;;;;;690328;28;881;-64
2024/03/15 00:04:57;;;;;;;5.03;3.23;;;;;;;;;;691123;28;1826;-64
2024/03/15 00:05:20;;;;;;;5.40;3.00;;;;;;;;;;693803;28;1139;-64
2024/03/15 00:05:43;;;;;;;4.63;3.10;;;;;;;;;;691769;28;999;-64
2024/03/15 00:06:03;;;;;;;4.68;3.00;;;;;;;;;;693367;28;1351;-64
2024/03/15 00:06:26;;;;;;;5.23;2.97;;;;;;;;;;693924;28;1203;-64
2024/03/15 00:06:46;;;;;;;5.80;3.20;;;;;;;;;;695470;28;2213;-64
2024/03/15 00:07:07;;;;;;;6.13;3.47;;;;;;;;;;693189;28;4306;-64
2024/03/15 00:07:27;;;;;;;5.18;3.20;;;;;;;;;;695043;28;908;-64
2024/03/15 00:07:47;;;;;;;5.23;3.13;;;;;;;;;;695393;28;1496;-64
2024/03/15 00:08:08;;;;;;;5.47;3.00;;;;;;;;;;697586;28;864;-64
2024/03/15 00:08:28;;;;;;;5.73;2.90;;;;;;;;;;694443;28;1910;-64
2024/03/15 00:08:51;;;;;;;5.03;2.83;;;;;;;;;;692413;28;2116;-64
2024/03/15 00:09:11;;;;;;;4.40;2.67;;;;;;;;;;693529;28;912;-64
2024/03/15 00:09:31;;;;;;;7.53;3.00;;;;;;;;;;693564;28;1121;-64
2024/03/15 00:09:51;;;;;;;7.30;3.53;;;;;;;;;;691803;28;894;-64
2024/03/15 00:10:12;;;;;;;6.60;3.13;;;;;;;;;;693376;28;4387;-64
2024/03/15 00:10:32;;;;;;;6.07;3.07;;;;;;;;;;694341;28;869;-64
2024/03/15 00:10:53;;;;;;;4.93;3.20;;;;;;;;;;693506;28;1792;-64
2024/03/15 00:11:14;;;;;;;4.10;2.75;;;;;;;;;;695775;28;1427;-64
2024/03/15 00:11:34;;;;;;;4.73;2.80;;;;;;;;;;695595;28;860;-64
2024/03/15 00:11:55;;;;;;;5.45;3.15;;;;;;;;;;689433;28;2132;-64
2024/03/15 00:12:15;;;;;;;5.38;3.10;;;;;;;;;;691246;28;901;-64
2024/03/15 00:12:35;;;;;;;4.80;2.90;;;;;;;;;;693274;28;780;-64
2024/03/15 00:12:56;;;;;;;4.83;2.73;;;;;;;;;;688836;28;2213;-64
2024/03/15 00:13:16;;;;;;;5.38;3.38;;;;;;;;;;688477;28;4515;-63
2024/03/15 00:13:36;;;;;;;5.30;3.50;;;;;;;;;;689098;28;770;-64
2024/03/15 00:13:57;;;;;;;5.47;3.53;;;;;;;;;;689169;28;2467;-64
2024/03/15 00:14:17;;;;;;;5.63;3.17;;;;;;;;;;689264;28;948;-64
2024/03/15 00:14:37;;;;;;;5.97;3.40;;;;;;;;;;690927;28;1264;-64
2024/03/15 00:14:57;;;;;;;6.43;3.43;;;;;;;;;;692184;28;1553;-64
2024/03/15 00:15:21;;;;;;;5.63;3.30;;;;;;;;;;694181;28;781;-64
2024/03/15 00:15:41;;;;;;;5.32;3.42;;;;;;;;;;692837;28;2109;-64
2024/03/15 00:16:03;;;;;;;5.47;3.33;;;;;;;;;;690256;28;4677;-64
2024/03/15 00:16:24;;;;;;;6.60;3.60;;;;;;;;;;693850;28;817;-64
2024/03/15 00:16:45;;;;;;;5.93;3.57;;;;;;;;;;690996;28;2587;-64
2024/03/15 00:17:05;;;;;;;5.20;3.30;;;;;;;;;;690943;28;805;-64
2024/03/15 00:17:27;;;;;;;4.93;3.20;;;;;;;;;;690838;28;814;-64
2024/03/15 00:17:48;;;;;;;4.60;3.28;;;;;;;;;;692944;28;1896;-64
2024/03/15 00:18:08;;;;;;;5.00;3.40;;;;;;;;;;690529;28;747;-64
2024/03/15 00:18:28;;;;;;;6.30;3.20;;;;;;;;;;688409;28;1638;-64
2024/03/15 00:18:49;;;;;;;6.07;2.97;;;;;;;;;;687314;28;2199;-64
2024/03/15 00:19:09;;;;;;;4.80;3.30;;;;;;;;;;687731;28;4519;-64
2024/03/15 00:19:29;;;;;;;6.13;3.23;;;;;;;;;;688918;28;1027;-64
2024/03/15 00:19:49;;;;;;;5.65;3.10;;;;;;;;;;687571;28;1556;-64
2024/03/15 00:20:11;;;;;;;5.57;3.20;;;;;;;;;;691108;28;1164;-64
2024/03/15 00:20:31;;;;;;;6.15;2.95;;;;;;;;;;692909;28;1610;-64
2024/03/15 00:20:52;;;;;;;6.93;3.40;;;;;;;;;;695440;28;1785;-64
2024/03/15 00:21:14;;;;;;;6.33;3.30;;;;;;;;;;693517;28;971;-64
2024/03/15 00:21:36;;;;;;;7.05;3.30;;;;;;;;;;693749;28;983;-64
2024/03/15 00:21:58;;;;;;;5.00;3.22;;;;;;;;;;691296;28;1683;-64
2024/03/15 00:22:18;;;;;;;5.50;3.33;;;;;;;;;;692971;28;4270;-64
2024/03/15 00:22:38;;;;;;;5.35;3.33;;;;;;;;;;690023;28;1283;-64
2024/03/15 00:22:59;;;;;;;5.03;3.60;;;;;;;;;;689355;28;3709;-67
2024/03/15 00:23:19;;;;;;;5.20;3.47;;;;;;;;;;691661;28;1385;-64
2024/03/15 00:23:39;;;;;;;4.72;3.05;;;;;;;;;;691416;28;913;-64
2024/03/15 00:24:00;;;;;;;5.80;2.90;;;;;;;;;;690488;28;1190;-64
2024/03/15 00:24:20;;;;;;;6.03;3.13;;;;;;;;;;688921;28;1550;-64
2024/03/15 00:24:40;;;;;;;4.73;3.10;;;;;;;;;;692899;28;1383;-64
2024/03/15 00:25:01;;;;;;;5.50;3.17;;;;;;;;;;692253;28;4433;-64
2024/03/15 00:25:21;;;;;;;5.38;3.00;;;;;;;;;;696121;28;889;-64
2024/03/15 00:25:41;;;;;;;6.03;3.30;;;;;;;;;;696555;28;770;-64
2024/03/15 00:26:02;;;;;;;8.65;3.47;;;;;;;;;;693625;28;1740;-64
2024/03/15 00:26:22;;;;;;;5.00;3.27;;;;;;;;;;695512;28;1046;-64
2024/03/15 00:26:42;;;;;;;5.77;3.53;;;;;;;;;;691748;28;1431;-64
2024/03/15 00:27:03;;;;;;;4.85;3.30;;;;;;;;;;693938;28;906;-64
2024/03/15 00:27:25;;;;;;;5.60;3.30;;;;;;;;;;694141;28;1038;-64
2024/03/15 00:27:45;;;;;;;6.20;3.30;;;;;;;;;;692379;28;2690;-65
2024/03/15 00:28:05;;;;;;;5.27;3.40;;;;;;;;;;692827;28;4577;-64
2024/03/15 00:28:25;;;;;;;4.90;3.42;;;;;;;;;;694864;28;1007;-63
2024/03/15 00:28:46;;;;;;;5.97;3.50;;;;;;;;;;695721;28;2062;-64
2024/03/15 00:29:07;;;;;;;5.30;3.30;;;;;;;;;;697896;28;849;-64
2024/03/15 00:29:28;;;;;;;4.78;3.40;;;;;;;;;;696440;28;928;-64
2024/03/15 00:29:50;;;;;;;5.70;3.30;;;;;;;;;;695252;28;1949;-64
2024/03/15 00:30:10;;;;;;;5.63;3.22;;;;;;;;;;694908;28;868;-64
2024/03/15 00:30:30;;;;;;;5.35;3.10;;;;;;;;;;697469;28;797;-64
2024/03/15 00:30:50;;;;;;;5.00;3.20;;;;;;;;;;694873;28;2090;-64
2024/03/15 00:31:12;;;;;;;4.93;3.13;;;;;;;;;;696942;28;4306;-64
2024/03/15 00:31:32;;;;;;;5.38;3.13;;;;;;;;;;693938;28;1066;-64
2024/03/15 00:31:53;;;;;;;5.50;3.20;;;;;;;;;;695094;28;1812;-64
2024/03/15 00:32:13;;;;;;;6.10;3.13;;;;;;;;;;695621;28;1125;-64
2024/03/15 00:32:33;;;;;;;6.88;3.60;;;;;;;;;;692348;28;1291;-64
2024/03/15 00:32:53;;;;;;;6.80;3.50;;;;;;;;;;692168;28;1832;-64
2024/03/15 00:33:14;;;;;;;5.03;3.27;;;;;;;;;;693980;28;972;-64
2024/03/15 00:33:35;;;;;;;7.00;3.13;;;;;;;;;;695870;28;1036;-64
2024/03/15 00:33:55;;;;;;;7.00;3.40;;;;;;;;;;696291;28;2565;-64
2024/03/15 00:34:15;;;;;;;5.07;3.23;;;;;;;;;;696937;28;4271;-64
2024/03/15 00:34:36;;;;;;;5.43;3.15;;;;;;;;;;697866;28;928;-64
2024/03/15 00:34:56;;;;;;;5.40;3.07;;;;;;;;;;698328;28;1828;-64
2024/03/15 00:35:16;;;;;;;4.93;3.23;;;;;;;;;;700053;28;1002;-64
2024/03/15 00:35:36;;;;;;;4.53;3.03;;;;;;;;;;699062;28;1085;-64
2024/03/15 00:35:57;;;;;;;5.57;3.20;;;;;;;;;;697899;28;1697;-64
2024/03/15 00:36:17;;;;;;;6.40;3.60;;;;;;;;;;700454;28;865;-64
2024/03/15 00:36:37;;;;;;;5.70;3.40;;;;;;;;;;698342;28;963;-64
2024/03/15 00:36:58;;;;;;;6.60;3.58;;;;;;;;;;695727;28;2267;-64
2024/03/15 00:37:18;;;;;;;5.53;3.40;;;;;;;;;;695378;28;4264;-64
2024/03/15 00:37:38;;;;;;;5.77;3.17;;;;;;;;;;696998;28;916;-64
2024/03/15 00:37:58;;;;;;;5.15;3.10;;;;;;;;;;696149;28;2047;-64
2024/03/15 00:38:19;;;;;;;6.60;3.20;;;;;;;;;;696904;28;990;-63
2024/03/15 00:38:39;;;;;;;5.10;3.00;;;;;;;;;;695593;28;809;-64
2024/03/15 00:38:59;;;;;;;6.22;3.25;;;;;;;;;;695144;28;2029;-64
2024/03/15 00:39:23;;;;;;;6.07;3.40;;;;;;;;;;697087;28;952;-64
2024/03/15 00:39:43;;;;;;;5.50;3.50;;;;;;;;;;696532;28;1149;-64
2024/03/15 00:40:04;;;;;;;5.63;3.37;;;;;;;;;;694695;28;4486;-64
2024/03/15 00:40:24;;;;;;;5.35;3.17;;;;;;;;;;694734;28;1586;-64
2024/03/15 00:40:45;;;;;;;5.40;3.50;;;;;;;;;;693373;28;1991;-64
2024/03/15 00:41:05;;;;;;;5.32;3.60;;;;;;;;;;692707;28;1344;-64
2024/03/15 00:41:26;;;;;;;6.00;3.50;;;;;;;;;;694831;28;1051;-64
2024/03/15 00:41:47;;;;;;;6.20;3.45;;;;;;;;;;692164;28;2196;-64
2024/03/15 00:42:07;;;;;;;6.15;3.30;;;;;;;;;;693918;28;980;-64
2024/03/15 00:42:29;;;;;;;6.30;3.30;;;;;;;;;;697275;28;1089;-64
2024/03/15 00:42:49;;;;;;;5.53;3.33;;;;;;;;;;693876;28;2505;-64
2024/03/15 00:43:15;;;;;;;5.90;3.70;;;;;;;;;;696778;28;4400;-64
2024/03/15 00:43:36;;;;;;;5.95;3.38;;;;;;;;;;695134;28;1376;-64
2024/03/15 00:43:56;;;;;;;5.38;3.10;;;;;;;;;;690027;28;1257;-64
2024/03/15 00:44:16;;;;;;;5.43;3.23;;;;;;;;;;691679;28;1304;-64
2024/03/15 00:44:37;;;;;;;6.27;3.40;;;;;;;;;;692690;28;964;-64
2024/03/15 00:44:57;;;;;;;4.97;3.40;;;;;;;;;;693490;28;1801;-64
2024/03/15 00:45:17;;;;;;;5.30;3.60;;;;;;;;;;693887;28;1519;-64
2024/03/15 00:45:38;;;;;;;6.17;3.70;;;;;;;;;;696963;28;1046;-64
2024/03/15 00:45:58;;;;;;;5.97;3.50;;;;;;;;;;697426;28;1801;-64
2024/03/15 00:46:19;;;;;;;5.18;3.33;;;;;;;;;;696386;28;4490;-64
2024/03/15 00:46:40;;;;;;;5.22;3.22;;;;;;;;;;697426;28;1062;-64
2024/03/15 00:47:00;;;;;;;6.60;3.50;;;;;;;;;;693086;28;2030;-64
2024/03/15 00:47:20;;;;;;;8.05;3.22;;;;;;;;;;694204;28;1091;-64
2024/03/15 00:47:41;;;;;;;7.43;3.30;;;;;;;;;;694632;28;1114;-64
2024/03/15 00:48:03;;;;;;;5.97;3.60;;;;;;;;;;695408;28;2275;-64
2024/03/15 00:48:23;;;;;;;6.38;3.22;;;;;;;;;;695962;28;1128;-64
2024/03/15 00:48:43;;;;;;;5.68;3.17;;;;;;;;;;696523;28;1968;-64
2024/03/15 00:49:04;;;;;;;4.87;2.70;;;;;;;;;;694841;28;4394;-64
2024/03/15 00:49:24;;;;;;;4.55;2.95;;;;;;;;;;696950;28;1085;-64
2024/03/15 00:49:45;;;;;;;5.20;3.10;;;;;;;;;;695340;28;1263;-64
2024/03/15 00:50:05;;;;;;;5.13;3.25;;;;;;;;;;696211;28;1947;-64
2024/03/15 00:50:25;;;;;;;6.57;3.53;;;;;;;;;;696368;28;4612;-64
2024/03/15 00:50:46;;;;;;;6.10;3.17;;;;;;;;;;695866;28;1050;-64
2024/03/15 00:51:06;;;;;;;5.43;3.22;;;;;;;;;;694103;28;1184;-64
2024/03/15 00:51:26;;;;;;;4.50;3.00;;;;;;;;;;694127;28;1162;-64
2024/03/15 00:51:47;;;;;;;4.88;2.92;;;;;;;;;;693132;28;1458;-64
2024/03/15 00:52:07;;;;;;;5.37;3.10;;;;;;;;;;696775;28;5249;-64
2024/03/15 00:52:28;;;;;;;5.20;3.28;;;;;;;;;;694239;28;1054;-64
2024/03/15 00:52:48;;;;;;;6.10;3.40;;;;;;;;;;693088;28;2644;-64
2024/03/15 00:53:09;;;;;;;5.72;3.50;;;;;;;;;;694708;28;1234;-64
2024/03/15 00:53:30;;;;;;;6.77;3.47;;;;;;;;;;694879;28;1163;-64
2024/03/15 00:53:50;;;;;;;5.90;3.30;;;;;;;;;;692151;28;1000;-64
2024/03/15 00:54:11;;;;;;;5.38;3.30;;;;;;;;;;695104;28;1016;-64
2024/03/15 00:54:31;;;;;;;6.47;3.30;;;;;;;;;;695709;28;1081;-64
2024/03/15 00:54:52;;;;;;;6.32;3.00;;;;;;;;;;694418;28;1998;-64
2024/03/15 00:55:12;;;;;;;6.13;3.50;;;;;;;;;;696459;28;4520;-64
2024/03/15 00:55:33;;;;;;;5.25;3.15;;;;;;;;;;696871;28;948;-64
2024/03/15 00:55:53;;;;;;;4.83;2.90;;;;;;;;;;695110;28;1896;-64
2024/03/15 00:56:14;;;;;;;5.00;3.30;;;;;;;;;;698304;28;956;-64
2024/03/15 00:56:34;;;;;;;4.60;3.10;;;;;;;;;;697477;28;900;-64
2024/03/15 00:56:54;;;;;;;5.63;3.33;;;;;;;;;;693504;28;1864;-63
2024/03/15 00:57:15;;;;;;;6.30;3.30;;;;;;;;;;695132;28;924;-64
2024/03/15 00:57:35;;;;;;;5.07;3.10;;;;;;;;;;692125;28;1319;-64
2024/03/15 00:57:55;;;;;;;6.05;3.13;;;;;;;;;;690333;28;1685;-64
2024/03/15 00:58:18;;;;;;;6.67;3.17;;;;;;;;;;690737;28;4482;-64
2024/03/15 00:58:41;;;;;;;4.90;3.20;;;;;;;;;;692687;28;1113;-64
2024/03/15 00:59:01;;;;;;;5.07;3.50;;;;;;;;;;696622;28;1875;-64
2024/03/15 00:59:22;;;;;;;6.17;3.60;;;;;;;;;;696247;28;825;-64
2024/03/15 00:59:42;;;;;;;5.70;3.38;;;;;;;;;;697145;28;927;-64
2024/03/15 01:00:03;;;;;;;5.97;3.43;;;;;;;;;;694617;28;2313;-64
2024/03/15 01:00:24;;;;;;;6.38;3.08;;;;;;;;;;696757;28;1024;-64
2024/03/15 01:00:44;;;;;;;5.80;3.40;;;;;;;;;;695703;28;2321;-64
2024/03/15 01:01:05;;;;;;;6.43;3.33;;;;;;;;;;692580;28;4686;-64
2024/03/15 01:01:25;;;;;;;6.67;3.50;;;;;;;;;;694774;28;940;-64
2024/03/15 01:01:45;;;;;;;6.53;3.40;;;;;;;;;;694507;28;855;-64
2024/03/15 01:02:06;;;;;;;5.05;3.20;;;;;;;;;;689384;28;1182;-64
2024/03/15 01:02:27;;;;;;;5.07;3.00;;;;;;;;;;691975;28;1344;-64
2024/03/15 01:02:47;;;;;;;5.25;3.30;;;;;;;;;;690246;28;1810;-64
2024/03/15 01:03:07;;;;;;;5.47;3.40;;;;;;;;;;694351;28;948;-64
2024/03/15 01:03:28;;;;;;;5.70;3.60;;;;;;;;;;695089;28;1095;-64
2024/03/15 01:03:49;;;;;;;6.13;3.43;;;;;;;;;;695072;28;2307;-64
2024/03/15 01:04:09;;;;;;;5.22;3.28;;;;;;;;;;696341;28;4400;-64
2024/03/15 01:04:29;;;;;;;4.83;3.20;;;;;;;;;;697625;28;950;-64
2024/03/15 01:04:51;;;;;;;5.03;3.10;;;;;;;;;;695133;28;2549;-64
2024/03/15 01:05:11;;;;;;;5.70;3.13;;;;;;;;;;696359;28;968;-64
2024/03/15 01:05:31;;;;;;;5.20;3.07;;;;;;;;;;695981;28;1276;-64
2024/03/15 01:05:52;;;;;;;4.93;2.93;;;;;;;;;;696065;28;1440;-64
2024/03/15 01:06:15;;;;;;;5.50;3.00;;;;;;;;;;693888;28;1652;-64
2024/03/15 01:06:35;;;;;;;5.03;3.03;;;;;;;;;;693428;28;929;-63
2024/03/15 01:08:38;;;;;;;6.18;3.40;;;;;;;;;;690344;28;5377;-64
2024/03/15 01:09:00;;;;;;;6.13;3.58;;;;;;;;;;688353;28;1865;-64
2024/03/15 01:09:21;;;;;;;6.10;3.40;;;;;;;;;;692724;28;1244;-64
2024/03/15 01:09:41;;;;;;;5.90;3.50;;;;;;;;;;691168;28;892;-64
2024/03/15 01:10:02;;;;;;;5.93;3.40;;;;;;;;;;694564;28;1153;-64
2024/03/15 01:10:23;;;;;;;5.40;3.30;;;;;;;;;;695295;28;853;-64
2024/03/15 01:10:49;;;;;;;5.85;3.10;;;;;;;;;;693418;28;858;-64
2024/03/15 01:11:11;;;;;;;4.75;2.80;;;;;;;;;;686965;28;2109;-64
2024/03/15 01:11:33;;;;;;;5.38;3.20;;;;;;;;;;685200;28;763;-64
2024/03/15 01:11:54;;;;;;;5.20;3.20;;;;;;;;;;685836;28;1881;-64
2024/03/15 01:12:15;;;;;;;5.47;3.45;;;;;;;;;;687300;28;1353;-64
2024/03/15 01:12:35;;;;;;;4.65;3.15;;;;;;;;;;687814;28;943;-64
2024/03/15 01:12:58;;;;;;;6.65;3.10;;;;;;;;;;687003;28;2317;-64
2024/03/15 01:13:19;;;;;;;5.97;3.10;;;;;;;;;;690835;28;4623;-64
2024/03/15 01:13:41;;;;;;;4.68;3.00;;;;;;;;;;693871;28;896;-64
2024/03/15 01:14:04;;;;;;;5.72;3.10;;;;;;;;;;696093;28;1542;-64
2024/03/15 01:14:25;;;;;;;5.70;3.00;;;;;;;;;;695907;28;1049;-64
2024/03/15 01:14:46;;;;;;;5.05;3.00;;;;;;;;;;692663;28;788;-64
2024/03/15 01:15:07;;;;;;;5.43;2.95;;;;;;;;;;692441;28;2600;-64
2024/03/15 01:15:28;;;;;;;6.37;3.10;;;;;;;;;;693357;28;843;-64
2024/03/15 01:15:48;;;;;;;5.27;3.27;;;;;;;;;;692376;28;1777;-64
2024/03/15 01:16:11;;;;;;;5.63;3.13;;;;;;;;;;693438;28;4905;-64
2024/03/15 01:16:31;;;;;;;6.57;3.10;;;;;;;;;;694504;28;837;-64
2024/03/15 01:16:51;;;;;;;6.30;3.30;;;;;;;;;;692394;28;1570;-64
2024/03/15 01:17:12;;;;;;;5.87;3.40;;;;;;;;;;693091;28;943;-64
2024/03/15 01:17:32;;;;;;;6.30;3.30;;;;;;;;;;694649;28;801;-64
2024/03/15 01:17:52;;;;;;;7.93;3.37;;;;;;;;;;692996;28;1964;-64
2024/03/15 01:18:13;;;;;;;6.83;3.20;;;;;;;;;;692243;28;939;-64
2024/03/15 01:18:33;;;;;;;5.13;3.17;;;;;;;;;;692245;28;864;-63
2024/03/15 01:18:54;;;;;;;4.60;3.17;;;;;;;;;;691724;28;1921;-64
2024/03/15 01:19:14;;;;;;;5.13;2.92;;;;;;;;;;692156;28;4456;-64
2024/03/15 01:19:34;;;;;;;5.33;3.07;;;;;;;;;;694729;28;1060;-64
2024/03/15 01:19:55;;;;;;;5.53;3.40;;;;;;;;;;691825;28;2476;-64
2024/03/15 01:20:15;;;;;;;5.87;3.20;;;;;;;;;;691502;28;1188;-64
2024/03/15 01:20:35;;;;;;;5.47;2.90;;;;;;;;;;690962;28;960;-63
2024/03/15 01:20:56;;;;;;;5.40;3.10;;;;;;;;;;690158;28;1797;-64
2024/03/15 01:21:16;;;;;;;5.37;3.40;;;;;;;;;;691390;28;1089;-64
2024/03/15 01:21:36;;;;;;;6.10;3.40;;;;;;;;;;691947;28;1193;-64
2024/03/15 01:21:56;;;;;;;6.22;3.20;;;;;;;;;;689921;28;2422;-64
2024/03/15 01:22:17;;;;;;;5.83;3.60;;;;;;;;;;697021;28;4462;-64
2024/03/15 01:22:40;;;;;;;5.30;3.70;;;;;;;;;;697092;28;921;-64
2024/03/15 01:23:02;;;;;;;5.60;3.25;;;;;;;;;;693060;28;1855;-64
2024/03/15 01:23:22;;;;;;;6.07;3.20;;;;;;;;;;692794;28;1238;-64
2024/03/15 01:23:43;;;;;;;5.53;3.30;;;;;;;;;;693954;28;770;-64
2024/03/15 01:24:03;;;;;;;4.70;3.17;;;;;;;;;;692043;28;2247;-64
2024/03/15 01:24:23;;;;;;;5.97;3.30;;;;;;;;;;693240;28;894;-64
2024/03/15 01:24:44;;;;;;;5.57;3.20;;;;;;;;;;693465;28;1301;-64
2024/03/15 01:25:04;;;;;;;5.10;3.10;;;;;;;;;;694306;28;4378;-64
2024/03/15 01:25:24;;;;;;;5.07;3.40;;;;;;;;;;696185;28;767;-64
2024/03/15 01:25:45;;;;;;;6.33;3.47;;;;;;;;;;697297;28;1044;-64
2024/03/15 01:26:06;;;;;;;5.43;3.30;;;;;;;;;;695545;28;1758;-64
2024/03/15 01:26:26;;;;;;;7.07;3.50;;;;;;;;;;697460;28;1006;-64
2024/03/15 01:26:46;;;;;;;6.27;3.30;;;;;;;;;;698365;28;869;-64
2024/03/15 01:27:07;;;;;;;5.93;3.47;;;;;;;;;;696911;28;2234;-64
2024/03/15 01:27:27;;;;;;;5.47;3.50;;;;;;;;;;698167;28;873;-64
2024/03/15 01:27:47;;;;;;;6.03;3.50;;;;;;;;;;696421;28;813;-64
2024/03/15 01:28:08;;;;;;;4.63;3.10;;;;;;;;;;694407;28;4425;-64
2024/03/15 01:28:31;;;;;;;4.72;3.25;;;;;;;;;;697350;28;790;-64
2024/03/15 01:28:51;;;;;;;5.53;3.20;;;;;;;;;;697342;28;993;-64
2024/03/15 01:29:12;;;;;;;6.53;3.30;;;;;;;;;;696591;28;931;-64
2024/03/15 01:29:32;;;;;;;6.45;3.40;;;;;;;;;;696115;28;925;-64
2024/03/15 01:29:53;;;;;;;5.80;3.40;;;;;;;;;;694552;28;1996;-64
2024/03/15 01:30:13;;;;;;;5.20;3.30;;;;;;;;;;696703;28;907;-64
2024/03/15 01:30:34;;;;;;;4.90;3.35;;;;;;;;;;698375;28;964;-64
2024/03/15 01:30:54;;;;;;;4.97;3.33;;;;;;;;;;695299;28;2324;-63
2024/03/15 01:31:14;;;;;;;4.83;3.33;;;;;;;;;;695269;28;4292;-64
2024/03/15 01:31:35;;;;;;;5.70;3.33;;;;;;;;;;695421;28;1375;-64
2024/03/15 01:31:56;;;;;;;5.47;3.42;;;;;;;;;;694778;28;2289;-64
2024/03/15 01:32:16;;;;;;;6.40;3.58;;;;;;;;;;696293;28;895;-64
2024/03/15 01:32:37;;;;;;;5.60;3.30;;;;;;;;;;695948;28;830;-64
2024/03/15 01:32:57;;;;;;;5.30;3.05;;;;;;;;;;695199;28;2060;-64
2024/03/15 01:33:18;;;;;;;5.27;3.07;;;;;;;;;;696356;28;1039;-64
2024/03/15 01:33:38;;;;;;;5.03;3.10;;;;;;;;;;696189;28;971;-64
2024/03/15 01:33:58;;;;;;;4.40;3.07;;;;;;;;;;694880;28;1880;-64
2024/03/15 01:34:18;;;;;;;4.47;3.00;;;;;;;;;;696506;28;4399;-64
2024/03/15 01:34:39;;;;;;;6.13;3.20;;;;;;;;;;696274;28;861;-64
2024/03/15 01:34:59;;;;;;;6.73;3.33;;;;;;;;;;692655;28;1973;-64
2024/03/15 01:35:19;;;;;;;5.10;3.20;;;;;;;;;;694427;28;805;-64
2024/03/15 01:35:40;;;;;;;4.73;3.10;;;;;;;;;;697242;28;952;-64
2024/03/15 01:36:00;;;;;;;5.43;3.35;;;;;;;;;;695677;28;1570;-64
2024/03/15 01:36:20;;;;;;;5.33;3.20;;;;;;;;;;696857;28;774;-64
2024/03/15 01:36:41;;;;;;;5.05;3.08;;;;;;;;;;696853;28;1011;-64
2024/03/15 01:37:01;;;;;;;6.50;3.27;;;;;;;;;;695226;28;4515;-64
2024/03/15 01:37:21;;;;;;;6.03;3.13;;;;;;;;;;697412;28;1023;-64
2024/03/15 01:37:42;;;;;;;6.25;3.20;;;;;;;;;;694135;28;948;-64
2024/03/15 01:38:02;;;;;;;6.38;3.25;;;;;;;;;;694329;28;1862;-64
2024/03/15 01:38:23;;;;;;;5.50;3.30;;;;;;;;;;696206;28;948;-64
2024/03/15 01:38:43;;;;;;;5.35;3.28;;;;;;;;;;694712;28;826;-64
2024/03/15 01:39:05;;;;;;;5.57;3.40;;;;;;;;;;695384;28;1671;-64
2024/03/15 01:39:25;;;;;;;5.55;3.42;;;;;;;;;;698267;28;861;-64
2024/03/15 01:39:47;;;;;;;5.63;3.38;;;;;;;;;;698240;28;1347;-64
2024/03/15 01:40:09;;;;;;;5.28;3.20;;;;;;;;;;693673;28;4534;-64
2024/03/15 01:40:30;;;;;;;4.63;3.10;;;;;;;;;;695896;28;857;-64
2024/03/15 01:40:51;;;;;;;5.80;3.40;;;;;;;;;;693383;28;1744;-64
2024/03/15 01:41:11;;;;;;;5.87;3.30;;;;;;;;;;694541;28;1292;-64
2024/03/15 01:41:31;;;;;;;4.25;3.10;;;;;;;;;;695202;28;853;-63
2024/03/15 01:41:51;;;;;;;4.37;3.03;;;;;;;;;;691495;28;1812;-64
2024/03/15 01:42:12;;;;;;;5.50;3.08;;;;;;;;;;692720;28;821;-64
2024/03/15 01:42:32;;;;;;;6.47;3.20;;;;;;;;;;693265;28;924;-64
2024/03/15 01:42:53;;;;;;;4.90;3.17;;;;;;;;;;692096;28;1857;-64
2024/03/15 01:43:14;;;;;;;4.78;3.30;;;;;;;;;;692559;28;4324;-64
2024/03/15 01:43:46;;;;;;;4.93;3.20;;;;;;;;;;697229;28;1031;-64
2024/03/15 01:44:06;;;;;;;5.07;3.25;;;;;;;;;;693833;28;2571;-64
2024/03/15 01:44:38;;;;;;;5.60;3.00;;;;;;;;;;696829;28;795;-64
2024/03/15 01:44:59;;;;;;;5.57;3.20;;;;;;;;;;694396;28;2243;-64
2024/03/15 01:45:19;;;;;;;5.43;3.20;;;;;;;;;;696177;28;987;-64
2024/03/15 01:45:40;;;;;;;5.40;3.20;;;;;;;;;;696033;28;900;-64
2024/03/15 01:46:00;;;;;;;5.22;3.30;;;;;;;;;;691187;28;4524;-64
2024/03/15 01:46:21;;;;;;;6.07;3.38;;;;;;;;;;693805;28;885;-64
2024/03/15 01:46:41;;;;;;;5.57;3.20;;;;;;;;;;690704;28;4597;-64
2024/03/15 01:47:02;;;;;;;4.80;3.10;;;;;;;;;;686027;28;2349;-64
2024/03/15 01:47:26;;;;;;;5.30;2.90;;;;;;;;;;687821;28;1289;-64
2024/03/15 01:47:46;;;;;;;4.95;3.25;;;;;;;;;;690567;28;1300;-63
2024/03/15 01:48:07;;;;;;;4.77;3.27;;;;;;;;;;692639;28;1510;-64
2024/03/15 01:48:27;;;;;;;5.60;3.35;;;;;;;;;;692939;28;953;-64
2024/03/15 01:48:47;;;;;;;5.17;3.30;;;;;;;;;;695985;28;1971;-64
2024/03/15 01:49:08;;;;;;;5.70;3.40;;;;;;;;;;695385;28;4498;-64
2024/03/15 01:49:28;;;;;;;6.20;3.33;;;;;;;;;;697709;28;758;-63
2024/03/15 01:49:49;;;;;;;5.77;3.27;;;;;;;;;;698205;28;901;-64
2024/03/15 01:50:09;;;;;;;5.68;3.20;;;;;;;;;;694265;28;2361;-62
2024/03/15 01:50:31;;;;;;;5.77;3.30;;;;;;;;;;696304;28;1143;-64
2024/03/15 01:50:51;;;;;;;5.50;3.85;;;;;;;;;;696125;28;1738;-64
2024/03/15 01:51:12;;;;;;;5.90;3.93;;;;;;;;;;696497;28;1436;-64
2024/03/15 01:51:32;;;;;;;5.75;3.30;;;;;;;;;;696609;28;892;-64
2024/03/15 01:51:53;;;;;;;5.43;3.20;;;;;;;;;;696183;28;2309;-64
2024/03/15 01:52:15;;;;;;;6.38;3.30;;;;;;;;;;696819;28;4343;-64
2024/03/15 01:52:36;;;;;;;6.75;3.47;;;;;;;;;;696478;28;988;-64
2024/03/15 01:52:56;;;;;;;5.57;3.20;;;;;;;;;;694465;28;1990;-64
2024/03/15 01:53:19;;;;;;;5.13;2.90;;;;;;;;;;697232;28;880;-64
2024/03/15 01:53:39;;;;;;;5.57;3.03;;;;;;;;;;696916;28;916;-63
2024/03/15 01:54:00;;;;;;;5.53;3.30;;;;;;;;;;696429;28;2590;-64
2024/03/15 01:54:20;;;;;;;5.50;3.28;;;;;;;;;;696349;28;1195;-63
2024/03/15 01:54:41;;;;;;;5.57;3.33;;;;;;;;;;696516;28;936;-64
2024/03/15 01:55:01;;;;;;;5.47;3.40;;;;;;;;;;696076;28;4305;-64
2024/03/15 01:55:22;;;;;;;5.18;3.30;;;;;;;;;;698315;28;1504;-64
2024/03/15 01:55:43;;;;;;;5.57;3.33;;;;;;;;;;697156;28;1845;-64
2024/03/15 01:56:03;;;;;;;5.93;3.40;;;;;;;;;;696151;28;1674;-63
2024/03/15 01:56:23;;;;;;;5.32;3.38;;;;;;;;;;696286;28;880;-63
2024/03/15 01:56:44;;;;;;;4.87;3.27;;;;;;;;;;695436;28;944;-63
2024/03/15 01:57:05;;;;;;;5.00;3.43;;;;;;;;;;695235;28;1493;-64
2024/03/15 01:57:25;;;;;;;5.25;3.53;;;;;;;;;;693987;28;932;-63
2024/03/15 01:57:45;;;;;;;5.50;3.30;;;;;;;;;;696152;28;877;-64
2024/03/15 01:58:08;;;;;;;5.30;3.10;;;;;;;;;;694247;28;4563;-64
2024/03/15 01:58:28;;;;;;;5.22;3.10;;;;;;;;;;695891;28;823;-64
2024/03/15 01:58:49;;;;;;;6.00;3.50;;;;;;;;;;695918;28;1347;-64
2024/03/15 01:59:11;;;;;;;6.00;3.35;;;;;;;;;;691976;28;1753;-64
2024/03/15 01:59:34;;;;;;;5.70;3.17;;;;;;;;;;694932;28;988;-64
2024/03/15 01:59:54;;;;;;;5.90;3.22;;;;;;;;;;693324;28;1074;-64
2024/03/15 02:00:16;;;;;;;4.73;3.30;;;;;;;;;;693707;28;951;-64
2024/03/15 02:00:38;;;;;;;5.13;3.20;;;;;;;;;;693689;28;967;-63
2024/03/15 02:00:58;;;;;;;5.35;3.30;;;;;;;;;;695623;28;1215;-64
2024/03/15 02:01:19;;;;;;;5.22;3.22;;;;;;;;;;696777;28;5959;-64
2024/03/15 02:01:39;;;;;;;5.80;3.30;;;;;;;;;;693529;28;1238;-64
2024/03/15 02:02:01;;;;;;;5.93;3.27;;;;;;;;;;693161;28;1947;-63
2024/03/15 02:02:22;;;;;;;5.90;3.40;;;;;;;;;;693845;28;968;-64
2024/03/15 02:02:43;;;;;;;5.97;3.30;;;;;;;;;;693444;28;960;-65
2024/03/15 02:03:04;;;;;;;6.00;3.20;;;;;;;;;;692155;28;1811;-63
2024/03/15 02:03:24;;;;;;;5.47;3.20;;;;;;;;;;696897;28;896;-63
2024/03/15 02:03:46;;;;;;;5.30;3.43;;;;;;;;;;698494;28;1296;-63
2024/03/15 02:04:07;;;;;;;5.10;3.20;;;;;;;;;;694035;28;4453;-64
2024/03/15 02:04:27;;;;;;;6.00;3.10;;;;;;;;;;691785;28;846;-64
2024/03/15 02:04:53;;;;;;;6.30;3.23;;;;;;;;;;694160;28;927;-64
2024/03/15 02:05:15;;;;;;;5.13;3.20;;;;;;;;;;693381;28;897;-64
2024/03/15 02:05:35;;;;;;;5.78;3.35;;;;;;;;;;693610;28;983;-64
2024/03/15 02:05:55;;;;;;;5.95;3.17;;;;;;;;;;692360;28;1561;-64
2024/03/15 02:06:16;;;;;;;5.20;3.20;;;;;;;;;;692493;28;853;-63
2024/03/15 02:06:38;;;;;;;5.27;3.20;;;;;;;;;;692750;28;1235;-64
2024/03/15 02:06:58;;;;;;;5.63;3.50;;;;;;;;;;691802;28;1682;-64
2024/03/15 02:07:18;;;;;;;5.82;3.30;;;;;;;;;;693825;28;4240;-64
2024/03/15 02:07:39;;;;;;;5.27;3.07;;;;;;;;;;695721;28;935;-63
2024/03/15 02:07:59;;;;;;;5.30;3.10;;;;;;;;;;693312;28;2016;-64
2024/03/15 02:08:19;;;;;;;4.83;3.20;;;;;;;;;;694023;28;1034;-64
2024/03/15 02:08:39;;;;;;;4.83;3.23;;;;;;;;;;693927;28;1983;-64
2024/03/15 02:09:00;;;;;;;5.33;3.40;;;;;;;;;;694069;28;949;-64
2024/03/15 02:09:20;;;;;;;5.10;3.10;;;;;;;;;;697397;28;787;-64
2024/03/15 02:09:41;;;;;;;5.23;3.07;;;;;;;;;;694567;28;951;-63
2024/03/15 02:10:09;;;;;;;5.22;3.10;;;;;;;;;;691686;28;4425;-63
2024/03/15 02:10:30;;;;;;;6.20;3.53;;;;;;;;;;693811;28;917;-64
2024/03/15 02:10:50;;;;;;;6.10;3.40;;;;;;;;;;695554;28;766;-63